createdAt,value
2018-08-20T00:00:06.386Z,26.01
2018-08-20T00:01:15.429Z,26.02
2018-08-20T00:02:25.308Z,25.98
2018-08-20T00:03:34.641Z,25.98
2018-08-20T00:04:44.573Z,25.97
2018-08-20T00:05:53.403Z,26.02
2018-08-20T00:07:03.015Z,25.95
2018-08-20T00:08:12.078Z,26.06
2018-08-20T00:09:21.183Z,26.12
2018-08-20T00:10:30.469Z,26.01
2018-08-20T00:11:39.763Z,25.97
2018-08-20T00:12:48.858Z,25.95
2018-08-20T00:13:58.221Z,26.01
2018-08-20T00:15:07.875Z,26.02
2018-08-20T00:16:17.892Z,26.01
2018-08-20T00:17:27.772Z,26.02
2018-08-20T00:18:36.913Z,26.1
2018-08-20T00:19:46.492Z,25.95
2018-08-20T00:20:56.022Z,26.05
2018-08-20T00:22:05.113Z,26.09
2018-08-20T00:23:14.637Z,26.1
2018-08-20T00:24:23.659Z,25.98
2018-08-20T00:25:33.258Z,25.99
2018-08-20T00:26:42.424Z,26.05
2018-08-20T00:27:51.250Z,26.06
2018-08-20T00:29:00.523Z,26.05
2018-08-20T00:30:09.787Z,25.99
2018-08-20T00:31:19.229Z,26.06
2018-08-20T00:32:28.883Z,26.02
2018-08-20T00:33:37.978Z,26.02
2018-08-20T00:34:47.534Z,25.98
2018-08-20T00:35:57.260Z,26.02
2018-08-20T00:37:06.544Z,25.98
2018-08-20T00:38:15.592Z,25.95
2018-08-20T00:39:25.114Z,25.99
2018-08-20T00:40:34.498Z,25.99
2018-08-20T00:41:44.234Z,26.05
2018-08-20T00:42:53.034Z,25.97
2018-08-20T00:44:02.969Z,25.95
2018-08-20T00:45:12.296Z,26.09
2018-08-20T00:46:21.574Z,25.99
2018-08-20T00:47:30.731Z,26.06
2018-08-20T00:48:40.334Z,26.02
2018-08-20T00:49:49.455Z,26.01
2018-08-20T00:50:58.836Z,25.91
2018-08-20T00:52:07.945Z,26.09
2018-08-20T00:53:17.281Z,26.02
2018-08-20T00:54:26.604Z,26.01
2018-08-20T00:55:36.232Z,26.01
2018-08-20T00:56:45.964Z,25.92
2018-08-20T00:57:55.001Z,26.02
2018-08-20T00:59:04.204Z,25.95
2018-08-20T01:00:12.995Z,25.92
2018-08-20T01:01:22.036Z,26.06
2018-08-20T01:02:31.489Z,25.98
2018-08-20T01:03:40.894Z,25.95
2018-08-20T01:04:50.276Z,25.95
2018-08-20T01:05:59.654Z,25.92
2018-08-20T01:07:08.768Z,25.94
2018-08-20T01:08:18.143Z,25.98
2018-08-20T01:09:27.216Z,25.99
2018-08-20T01:10:36.259Z,25.97
2018-08-20T01:11:45.582Z,25.98
2018-08-20T01:12:54.594Z,25.92
2018-08-20T01:14:03.688Z,25.95
2018-08-20T01:15:13.288Z,25.99
2018-08-20T01:16:22.894Z,25.92
2018-08-20T01:17:32.544Z,25.97
2018-08-20T01:18:42.309Z,25.98
2018-08-20T01:19:52.150Z,25.95
2018-08-20T01:21:01.698Z,25.9
2018-08-20T01:22:10.931Z,25.92
2018-08-20T01:23:20.499Z,25.97
2018-08-20T01:24:29.825Z,25.95
2018-08-20T01:25:39.468Z,25.91
2018-08-20T01:26:48.744Z,25.94
2018-08-20T01:27:58.282Z,25.91
2018-08-20T01:29:08.005Z,25.97
2018-08-20T01:30:17.349Z,25.95
2018-08-20T01:31:26.679Z,25.94
2018-08-20T01:32:35.432Z,25.97
2018-08-20T01:33:45.019Z,25.95
2018-08-20T01:34:54.332Z,25.97
2018-08-20T01:36:03.953Z,25.97
2018-08-20T01:37:13.023Z,25.94
2018-08-20T01:38:22.560Z,25.95
2018-08-20T01:39:31.826Z,25.95
2018-08-20T01:40:41.211Z,25.97
2018-08-20T01:41:50.793Z,25.97
2018-08-20T01:43:01.003Z,25.95
2018-08-20T01:44:10.282Z,25.9
2018-08-20T01:45:19.866Z,25.92
2018-08-20T01:46:29.218Z,25.91
2018-08-20T01:47:38.832Z,25.94
2018-08-20T01:48:48.169Z,25.97
2018-08-20T01:49:57.227Z,25.94
2018-08-20T01:51:06.811Z,25.91
2018-08-20T01:52:16.055Z,25.97
2018-08-20T01:53:25.830Z,25.94
2018-08-20T01:54:35.155Z,25.95
2018-08-20T01:55:44.429Z,25.97
2018-08-20T01:56:54.051Z,25.88
2018-08-20T01:58:03.896Z,25.91
2018-08-20T01:59:13.275Z,25.91
2018-08-20T02:00:22.643Z,25.95
2018-08-20T02:01:31.984Z,25.91
2018-08-20T02:02:41.514Z,25.92
2018-08-20T02:03:50.346Z,25.94
2018-08-20T02:04:59.914Z,25.91
2018-08-20T02:06:08.981Z,25.91
2018-08-20T02:07:17.893Z,25.92
2018-08-20T02:08:27.053Z,25.92
2018-08-20T02:09:36.068Z,25.94
2018-08-20T02:10:45.434Z,25.9
2018-08-20T02:11:54.743Z,25.91
2018-08-20T02:13:03.808Z,25.95
2018-08-20T02:14:12.928Z,25.95
2018-08-20T02:15:22.290Z,25.94
2018-08-20T02:16:31.333Z,25.91
2018-08-20T02:17:40.607Z,25.94
2018-08-20T02:18:49.893Z,25.88
2018-08-20T02:19:59.439Z,25.88
2018-08-20T02:21:08.970Z,25.94
2018-08-20T02:22:18.454Z,25.88
2018-08-20T02:23:27.458Z,25.9
2018-08-20T02:24:37.054Z,25.91
2018-08-20T02:25:46.075Z,25.92
2018-08-20T02:26:55.610Z,25.92
2018-08-20T02:28:04.934Z,25.92
2018-08-20T02:29:14.217Z,25.9
2018-08-20T02:30:23.269Z,25.88
2018-08-20T02:31:32.527Z,25.9
2018-08-20T02:32:42.080Z,25.87
2018-08-20T02:33:51.358Z,25.94
2018-08-20T02:35:00.943Z,25.92
2018-08-20T02:36:10.823Z,25.92
2018-08-20T02:37:20.219Z,25.8
2018-08-20T02:38:30.158Z,25.9
2018-08-20T02:39:39.184Z,25.91
2018-08-20T02:40:48.230Z,25.92
2018-08-20T02:41:57.247Z,25.91
2018-08-20T02:43:06.812Z,25.91
2018-08-20T02:44:16.888Z,25.88
2018-08-20T02:45:25.947Z,25.92
2018-08-20T02:46:35.262Z,25.85
2018-08-20T02:47:44.657Z,25.92
2018-08-20T02:48:53.824Z,25.88
2018-08-20T02:50:02.897Z,25.9
2018-08-20T02:51:12.276Z,25.92
2018-08-20T02:52:21.865Z,25.91
2018-08-20T02:53:31.157Z,25.95
2018-08-20T02:54:40.476Z,25.92
2018-08-20T02:55:50.082Z,25.94
2018-08-20T02:56:59.129Z,25.91
2018-08-20T02:58:08.450Z,25.82
2018-08-20T02:59:17.844Z,25.9
2018-08-20T03:00:26.867Z,25.82
2018-08-20T03:01:35.968Z,25.88
2018-08-20T03:02:45.522Z,25.9
2018-08-20T03:03:54.584Z,25.91
2018-08-20T03:05:04.443Z,25.95
2018-08-20T03:06:14.071Z,25.8
2018-08-20T03:07:24.144Z,25.83
2018-08-20T03:08:33.270Z,25.87
2018-08-20T03:09:42.916Z,25.91
2018-08-20T03:10:52.490Z,25.91
2018-08-20T03:12:01.563Z,25.85
2018-08-20T03:13:10.640Z,25.87
2018-08-20T03:14:20.488Z,25.82
2018-08-20T03:15:29.902Z,25.85
2018-08-20T03:16:39.570Z,25.85
2018-08-20T03:17:48.943Z,25.87
2018-08-20T03:18:58.502Z,25.79
2018-08-20T03:20:07.887Z,25.83
2018-08-20T03:21:17.541Z,25.87
2018-08-20T03:22:27.384Z,25.85
2018-08-20T03:23:36.798Z,25.85
2018-08-20T03:24:46.183Z,25.8
2018-08-20T03:25:55.761Z,25.85
2018-08-20T03:27:04.867Z,25.77
2018-08-20T03:28:14.665Z,25.85
2018-08-20T03:29:23.733Z,25.8
2018-08-20T03:30:33.262Z,25.87
2018-08-20T03:31:42.847Z,25.85
2018-08-20T03:32:52.384Z,25.9
2018-08-20T03:34:02.018Z,25.85
2018-08-20T03:35:10.971Z,25.9
2018-08-20T03:36:20.331Z,25.88
2018-08-20T03:37:30.117Z,25.83
2018-08-20T03:38:39.405Z,25.9
2018-08-20T03:39:49.041Z,25.83
2018-08-20T03:40:58.359Z,25.82
2018-08-20T03:42:07.950Z,25.82
2018-08-20T03:43:17.122Z,25.8
2018-08-20T03:44:26.142Z,25.8
2018-08-20T03:45:35.681Z,25.87
2018-08-20T03:46:45.095Z,25.79
2018-08-20T03:47:55.041Z,25.82
2018-08-20T03:49:04.928Z,25.8
2018-08-20T03:50:14.343Z,25.8
2018-08-20T03:51:24.188Z,25.85
2018-08-20T03:52:33.827Z,25.8
2018-08-20T03:53:43.413Z,25.82
2018-08-20T03:54:52.739Z,25.87
2018-08-20T03:56:02.059Z,25.85
2018-08-20T03:57:11.130Z,25.82
2018-08-20T03:58:20.264Z,25.85
2018-08-20T03:59:29.420Z,25.8
2018-08-20T04:00:38.181Z,25.83
2018-08-20T04:01:47.002Z,25.83
2018-08-20T04:02:56.024Z,25.75
2018-08-20T04:04:05.603Z,25.76
2018-08-20T04:05:14.972Z,25.8
2018-08-20T04:06:24.551Z,25.75
2018-08-20T04:07:33.615Z,25.79
2018-08-20T04:08:43.212Z,25.76
2018-08-20T04:09:52.827Z,25.77
2018-08-20T04:11:01.679Z,25.77
2018-08-20T04:12:11.250Z,25.75
2018-08-20T04:13:20.822Z,25.85
2018-08-20T04:14:30.651Z,25.82
2018-08-20T04:15:40.281Z,25.79
2018-08-20T04:16:49.612Z,25.85
2018-08-20T04:17:59.174Z,25.67
2018-08-20T04:19:08.025Z,25.75
2018-08-20T04:20:17.046Z,25.73
2018-08-20T04:21:26.150Z,25.7
2018-08-20T04:22:35.464Z,25.7
2018-08-20T04:23:45.109Z,25.75
2018-08-20T04:24:54.747Z,25.73
2018-08-20T04:26:04.419Z,25.73
2018-08-20T04:27:13.479Z,25.72
2018-08-20T04:28:23.346Z,25.73
2018-08-20T04:29:32.390Z,25.72
2018-08-20T04:30:41.708Z,25.7
2018-08-20T04:31:52.121Z,25.72
2018-08-20T04:33:01.423Z,25.73
2018-08-20T04:34:11.030Z,25.69
2018-08-20T04:35:20.278Z,25.76
2018-08-20T04:36:30.342Z,25.69
2018-08-20T04:37:40.864Z,25.7
2018-08-20T04:38:50.297Z,25.65
2018-08-20T04:40:00.116Z,25.7
2018-08-20T04:41:09.673Z,25.73
2018-08-20T04:42:19.273Z,25.73
2018-08-20T04:43:28.923Z,25.69
2018-08-20T04:44:38.529Z,25.69
2018-08-20T04:45:48.391Z,25.7
2018-08-20T04:46:57.450Z,25.72
2018-08-20T04:48:07.014Z,25.67
2018-08-20T04:49:16.956Z,25.73
2018-08-20T04:50:26.307Z,25.7
2018-08-20T04:51:36.092Z,25.69
2018-08-20T04:52:45.653Z,25.73
2018-08-20T04:53:54.807Z,25.69
2018-08-20T04:55:04.402Z,25.69
2018-08-20T04:56:13.928Z,25.73
2018-08-20T04:57:23.192Z,25.72
2018-08-20T04:58:32.269Z,25.7
2018-08-20T04:59:41.852Z,25.75
2018-08-20T05:00:51.677Z,25.7
2018-08-20T05:02:01.007Z,25.8
2018-08-20T05:03:10.260Z,25.77
2018-08-20T05:04:19.939Z,25.79
2018-08-20T05:05:29.462Z,25.8
2018-08-20T05:06:38.755Z,25.83
2018-08-20T05:07:48.140Z,25.83
2018-08-20T05:08:57.853Z,25.87
2018-08-20T05:10:07.960Z,25.82
2018-08-20T05:11:17.211Z,25.79
2018-08-20T05:12:26.847Z,25.85
2018-08-20T05:13:36.411Z,25.82
2018-08-20T05:14:45.507Z,25.82
2018-08-20T05:15:54.854Z,25.91
2018-08-20T05:17:04.683Z,25.92
2018-08-20T05:18:13.907Z,25.88
2018-08-20T05:19:23.258Z,25.9
2018-08-20T05:20:32.361Z,25.91
2018-08-20T05:21:41.795Z,25.94
2018-08-20T05:22:51.204Z,25.94
2018-08-20T05:24:00.718Z,25.92
2018-08-20T05:25:10.166Z,25.94
2018-08-20T05:26:19.947Z,25.91
2018-08-20T05:27:29.480Z,25.9
2018-08-20T05:28:38.640Z,25.87
2018-08-20T05:29:47.909Z,25.92
2018-08-20T05:30:57.071Z,25.95
2018-08-20T05:32:06.458Z,25.91
2018-08-20T05:33:16.039Z,25.92
2018-08-20T05:34:25.355Z,25.94
2018-08-20T05:35:35.043Z,25.95
2018-08-20T05:36:44.571Z,25.94
2018-08-20T05:37:54.130Z,25.97
2018-08-20T05:39:03.692Z,25.98
2018-08-20T05:40:12.739Z,25.94
2018-08-20T05:41:22.519Z,25.97
2018-08-20T05:42:31.876Z,25.97
2018-08-20T05:43:41.724Z,25.99
2018-08-20T05:44:50.647Z,25.97
2018-08-20T05:46:00.021Z,25.92
2018-08-20T05:47:09.793Z,25.97
2018-08-20T05:48:19.624Z,25.95
2018-08-20T05:49:29.047Z,25.97
2018-08-20T05:50:38.325Z,25.95
2018-08-20T05:51:47.666Z,25.95
2018-08-20T05:52:57.258Z,25.95
2018-08-20T05:54:06.853Z,25.97
2018-08-20T05:55:16.681Z,25.97
2018-08-20T05:56:26.132Z,25.95
2018-08-20T05:57:35.553Z,25.95
2018-08-20T05:58:45.179Z,25.97
2018-08-20T05:59:54.684Z,25.9
2018-08-20T06:01:04.171Z,25.99
2018-08-20T06:02:13.389Z,25.95
2018-08-20T06:03:22.556Z,25.98
2018-08-20T06:04:33.016Z,25.97
2018-08-20T06:05:42.812Z,25.95
2018-08-20T06:06:52.023Z,25.9
2018-08-20T06:08:01.943Z,25.95
2018-08-20T06:09:11.316Z,25.97
2018-08-20T06:10:22.272Z,25.99
2018-08-20T06:11:33.668Z,25.95
2018-08-20T06:12:44.031Z,25.99
2018-08-20T06:13:53.654Z,25.97
2018-08-20T06:15:03.489Z,25.92
2018-08-20T06:16:13.710Z,25.95
2018-08-20T06:17:23.044Z,25.9
2018-08-20T06:18:32.836Z,26.01
2018-08-20T06:19:42.570Z,25.92
2018-08-20T06:20:52.207Z,25.95
2018-08-20T06:22:01.732Z,25.92
2018-08-20T06:23:10.755Z,25.95
2018-08-20T06:24:20.076Z,26.06
2018-08-20T06:25:28.923Z,25.95
2018-08-20T06:26:38.015Z,25.92
2018-08-20T06:27:47.648Z,25.95
2018-08-20T06:28:57.248Z,26.06
2018-08-20T06:30:06.611Z,25.98
2018-08-20T06:31:16.120Z,26.01
2018-08-20T06:32:25.415Z,25.91
2018-08-20T06:33:34.873Z,25.92
2018-08-20T06:34:43.947Z,25.95
2018-08-20T06:35:52.986Z,26.06
2018-08-20T06:37:02.516Z,25.92
2018-08-20T06:38:12.535Z,25.98
2018-08-20T06:39:22.075Z,25.94
2018-08-20T06:40:32.143Z,26.01
2018-08-20T06:41:41.314Z,26.05
2018-08-20T06:42:50.720Z,25.97
2018-08-20T06:43:59.827Z,25.94
2018-08-20T06:45:09.319Z,26.01
2018-08-20T06:46:18.900Z,26.02
2018-08-20T06:47:28.531Z,26.01
2018-08-20T06:48:38.448Z,25.98
2018-08-20T06:49:47.483Z,25.95
2018-08-20T06:50:56.886Z,26.01
2018-08-20T06:52:06.500Z,26.06
2018-08-20T06:53:16.151Z,25.95
2018-08-20T06:54:25.317Z,26.06
2018-08-20T06:55:34.877Z,25.95
2018-08-20T06:56:44.217Z,26.02
2018-08-20T06:57:53.583Z,25.92
2018-08-20T06:59:03.431Z,25.92
2018-08-20T07:00:12.842Z,25.95
2018-08-20T07:01:22.994Z,25.95
2018-08-20T07:02:32.500Z,25.98
2018-08-20T07:03:41.963Z,25.97
2018-08-20T07:04:50.979Z,26.05
2018-08-20T07:06:00.361Z,26.01
2018-08-20T07:07:10.026Z,25.94
2018-08-20T07:08:19.787Z,26.01
2018-08-20T07:09:29.157Z,25.92
2018-08-20T07:10:38.797Z,25.98
2018-08-20T07:11:48.260Z,25.94
2018-08-20T07:12:57.692Z,26.09
2018-08-20T07:14:07.310Z,25.95
2018-08-20T07:15:16.913Z,25.92
2018-08-20T07:16:26.483Z,26.05
2018-08-20T07:17:36.681Z,25.97
2018-08-20T07:18:46.120Z,26.01
2018-08-20T07:19:55.156Z,25.97
2018-08-20T07:21:05.056Z,26.05
2018-08-20T07:22:14.372Z,25.95
2018-08-20T07:23:24.468Z,26.05
2018-08-20T07:24:35.352Z,26.02
2018-08-20T07:25:46.393Z,25.97
2018-08-20T07:26:56.725Z,26.02
2018-08-20T07:28:05.799Z,25.97
2018-08-20T07:29:14.866Z,25.99
2018-08-20T07:30:23.953Z,26.01
2018-08-20T07:31:34.153Z,25.95
2018-08-20T07:32:44.374Z,25.98
2018-08-20T07:33:53.435Z,25.94
2018-08-20T07:35:02.968Z,25.94
2018-08-20T07:36:13.189Z,25.95
2018-08-20T07:37:22.901Z,25.95
2018-08-20T07:38:32.442Z,25.98
2018-08-20T07:39:42.285Z,25.92
2018-08-20T07:40:51.318Z,25.98
2018-08-20T07:42:00.666Z,25.95
2018-08-20T07:43:09.595Z,25.97
2018-08-20T07:44:19.161Z,25.92
2018-08-20T07:45:28.424Z,25.95
2018-08-20T07:46:38.198Z,25.94
2018-08-20T07:47:47.814Z,25.92
2018-08-20T07:48:57.432Z,26.06
2018-08-20T07:50:07.022Z,26.06
2018-08-20T07:51:16.856Z,25.98
2018-08-20T07:52:26.523Z,25.94
2018-08-20T07:53:35.855Z,25.95
2018-08-20T07:54:45.174Z,25.91
2018-08-20T07:55:54.445Z,26.01
2018-08-20T07:57:04.211Z,26.01
2018-08-20T07:58:13.617Z,25.97
2018-08-20T07:59:22.897Z,25.98
2018-08-20T08:00:32.390Z,26.06
2018-08-20T08:01:41.728Z,26.05
2018-08-20T08:02:52.257Z,26.01
2018-08-20T08:04:02.048Z,26.05
2018-08-20T08:05:11.436Z,26.01
2018-08-20T08:06:20.460Z,25.98
2018-08-20T08:07:29.848Z,26.06
2018-08-20T08:08:39.752Z,26.05
2018-08-20T08:09:49.792Z,26.02
2018-08-20T08:10:59.111Z,25.98
2018-08-20T08:12:08.442Z,25.92
2018-08-20T08:13:17.986Z,25.97
2018-08-20T08:14:27.534Z,25.94
2018-08-20T08:15:37.034Z,26.05
2018-08-20T08:16:47.114Z,26.07
2018-08-20T08:17:56.453Z,26.01
2018-08-20T08:19:05.512Z,26.02
2018-08-20T08:20:14.799Z,26.01
2018-08-20T08:21:24.271Z,26.06
2018-08-20T08:22:33.844Z,26.07
2018-08-20T08:23:43.384Z,26.01
2018-08-20T08:24:52.438Z,25.98
2018-08-20T08:26:01.788Z,26.1
2018-08-20T08:27:11.535Z,25.98
2018-08-20T08:28:20.593Z,26.01
2018-08-20T08:29:29.952Z,25.95
2018-08-20T08:30:38.956Z,26.07
2018-08-20T08:31:48.252Z,25.94
2018-08-20T08:32:58.093Z,26.12
2018-08-20T08:34:07.167Z,26.06
2018-08-20T08:35:16.548Z,26.01
2018-08-20T08:36:26.129Z,26.01
2018-08-20T08:37:36.002Z,25.97
2018-08-20T08:38:45.344Z,26.01
2018-08-20T08:39:54.641Z,26.02
2018-08-20T08:41:03.976Z,25.98
2018-08-20T08:42:13.563Z,26.06
2018-08-20T08:43:23.402Z,26.05
2018-08-20T08:44:32.737Z,25.95
2018-08-20T08:45:41.752Z,25.97
2018-08-20T08:46:51.283Z,25.94
2018-08-20T08:48:01.118Z,25.95
2018-08-20T08:49:11.838Z,25.99
2018-08-20T08:50:21.192Z,25.94
2018-08-20T08:51:30.218Z,25.97
2018-08-20T08:52:39.781Z,25.95
2018-08-20T08:53:49.113Z,25.95
2018-08-20T08:54:59.338Z,25.98
2018-08-20T08:56:08.895Z,25.98
2018-08-20T08:57:18.211Z,25.99
2018-08-20T08:58:27.752Z,26.01
2018-08-20T08:59:37.335Z,26.06
2018-08-20T09:00:46.511Z,26.09
2018-08-20T09:01:56.445Z,26.09
2018-08-20T09:03:05.729Z,25.99
2018-08-20T09:04:14.778Z,26.09
2018-08-20T09:05:23.854Z,26.05
2018-08-20T09:06:33.485Z,26.1
2018-08-20T09:07:43.027Z,26.01
2018-08-20T09:08:52.544Z,25.99
2018-08-20T09:10:02.130Z,26.09
2018-08-20T09:11:11.964Z,26.1
2018-08-20T09:12:21.040Z,26.12
2018-08-20T09:13:30.303Z,26.13
2018-08-20T09:14:39.817Z,26.07
2018-08-20T09:15:49.670Z,26.05
2018-08-20T09:16:58.946Z,26.1
2018-08-20T09:18:08.729Z,26.1
2018-08-20T09:19:18.276Z,26.21
2018-08-20T09:20:27.562Z,26.1
2018-08-20T09:21:37.797Z,26.21
2018-08-20T09:22:47.188Z,26.18
2018-08-20T09:23:56.762Z,26.2
2018-08-20T09:25:06.593Z,26.2
2018-08-20T09:26:16.970Z,26.21
2018-08-20T09:27:25.952Z,26.15
2018-08-20T09:28:35.086Z,26.21
2018-08-20T09:29:44.705Z,26.21
2018-08-20T09:30:53.691Z,26.23
2018-08-20T09:32:03.058Z,26.28
2018-08-20T09:33:12.100Z,26.18
2018-08-20T09:34:21.101Z,26.29
2018-08-20T09:35:30.621Z,26.25
2018-08-20T09:36:40.185Z,26.28
2018-08-20T09:37:49.546Z,26.26
2018-08-20T09:38:58.601Z,26.26
2018-08-20T09:40:07.411Z,26.21
2018-08-20T09:41:16.150Z,26.23
2018-08-20T09:42:24.975Z,26.26
2018-08-20T09:43:34.778Z,26.23
2018-08-20T09:44:44.376Z,26.3
2018-08-20T09:45:53.908Z,26.26
2018-08-20T09:47:02.894Z,26.26
2018-08-20T09:48:12.247Z,26.32
2018-08-20T09:49:21.992Z,26.28
2018-08-20T09:50:31.017Z,26.33
2018-08-20T09:51:40.277Z,26.23
2018-08-20T09:52:49.621Z,26.26
2018-08-20T09:53:58.933Z,26.29
2018-08-20T09:55:08.282Z,26.29
2018-08-20T09:56:18.377Z,26.33
2018-08-20T09:57:27.366Z,26.29
2018-08-20T09:58:36.584Z,26.3
2018-08-20T09:59:45.980Z,26.3
2018-08-20T10:00:54.973Z,26.3
2018-08-20T10:02:04.786Z,26.32
2018-08-20T10:03:14.115Z,26.29
2018-08-20T10:04:23.722Z,26.26
2018-08-20T10:05:32.816Z,26.26
2018-08-20T10:06:42.162Z,26.32
2018-08-20T10:07:52.173Z,26.36
2018-08-20T10:09:01.692Z,26.29
2018-08-20T10:10:11.126Z,26.25
2018-08-20T10:11:20.678Z,26.35
2018-08-20T10:12:29.968Z,26.3
2018-08-20T10:13:39.207Z,26.37
2018-08-20T10:14:49.076Z,26.32
2018-08-20T10:15:58.648Z,26.3
2018-08-20T10:17:07.954Z,26.29
2018-08-20T10:18:16.773Z,26.32
2018-08-20T10:19:26.130Z,26.35
2018-08-20T10:20:35.181Z,26.3
2018-08-20T10:21:44.522Z,26.35
2018-08-20T10:22:54.657Z,26.33
2018-08-20T10:24:04.413Z,26.33
2018-08-20T10:25:13.694Z,26.33
2018-08-20T10:26:23.222Z,26.35
2018-08-20T10:27:32.498Z,26.3
2018-08-20T10:28:41.539Z,26.33
2018-08-20T10:29:51.161Z,26.33
2018-08-20T10:31:00.415Z,26.35
2018-08-20T10:32:09.912Z,26.36
2018-08-20T10:33:19.509Z,26.35
2018-08-20T10:34:28.759Z,26.32
2018-08-20T10:35:37.826Z,26.35
2018-08-20T10:36:47.074Z,26.32
2018-08-20T10:37:56.771Z,26.33
2018-08-20T10:39:06.420Z,26.35
2018-08-20T10:40:16.255Z,26.32
2018-08-20T10:41:26.052Z,26.25
2018-08-20T10:42:35.342Z,26.3
2018-08-20T10:43:45.286Z,26.28
2018-08-20T10:44:55.311Z,26.26
2018-08-20T10:46:04.885Z,26.32
2018-08-20T10:47:14.262Z,26.23
2018-08-20T10:48:23.884Z,26.3
2018-08-20T10:49:33.436Z,26.32
2018-08-20T10:50:42.890Z,26.3
2018-08-20T10:51:52.475Z,26.26
2018-08-20T10:53:01.579Z,26.3
2018-08-20T10:54:11.327Z,26.26
2018-08-20T10:55:20.634Z,26.29
2018-08-20T10:56:30.388Z,26.33
2018-08-20T10:57:40.208Z,26.29
2018-08-20T10:58:49.462Z,26.29
2018-08-20T10:59:58.985Z,26.25
2018-08-20T11:01:08.097Z,26.33
2018-08-20T11:02:17.379Z,26.32
2018-08-20T11:03:26.900Z,26.29
2018-08-20T11:04:35.927Z,26.26
2018-08-20T11:05:45.552Z,26.28
2018-08-20T11:06:54.776Z,26.29
2018-08-20T11:08:04.309Z,26.33
2018-08-20T11:09:13.941Z,26.33
2018-08-20T11:10:23.272Z,26.28
2018-08-20T11:11:32.964Z,26.3
2018-08-20T11:12:42.683Z,26.32
2018-08-20T11:13:51.647Z,26.29
2018-08-20T11:15:01.001Z,26.25
2018-08-20T11:16:11.084Z,26.21
2018-08-20T11:17:20.340Z,26.26
2018-08-20T11:18:30.665Z,26.32
2018-08-20T11:19:40.057Z,26.25
2018-08-20T11:20:49.859Z,26.26
2018-08-20T11:21:59.420Z,26.3
2018-08-20T11:23:08.576Z,26.25
2018-08-20T11:24:17.654Z,26.29
2018-08-20T11:25:27.474Z,26.26
2018-08-20T11:26:37.268Z,26.3
2018-08-20T11:27:47.639Z,26.35
2018-08-20T11:28:56.667Z,26.28
2018-08-20T11:30:06.473Z,26.36
2018-08-20T11:31:16.283Z,26.32
2018-08-20T11:32:26.088Z,26.36
2018-08-20T11:33:35.979Z,26.4
2018-08-20T11:34:45.614Z,26.29
2018-08-20T11:35:55.135Z,26.36
2018-08-20T11:37:05.045Z,26.36
2018-08-20T11:38:14.570Z,26.36
2018-08-20T11:39:24.004Z,26.37
2018-08-20T11:40:33.437Z,26.32
2018-08-20T11:41:43.174Z,26.37
2018-08-20T11:42:52.907Z,26.36
2018-08-20T11:44:02.509Z,26.36
2018-08-20T11:45:12.254Z,26.39
2018-08-20T11:46:21.601Z,26.43
2018-08-20T11:47:31.923Z,26.39
2018-08-20T11:48:40.945Z,26.39
2018-08-20T11:49:50.356Z,26.44
2018-08-20T11:50:59.957Z,26.44
2018-08-20T11:52:09.792Z,26.39
2018-08-20T11:53:19.343Z,26.4
2018-08-20T11:54:28.405Z,26.39
2018-08-20T11:55:38.473Z,26.43
2018-08-20T11:56:49.215Z,26.4
2018-08-20T11:57:59.640Z,26.37
2018-08-20T11:59:08.508Z,26.43
2018-08-20T12:00:17.953Z,26.44
2018-08-20T12:01:27.320Z,26.39
2018-08-20T12:02:36.743Z,26.39
2018-08-20T12:03:45.850Z,26.39
2018-08-20T12:04:55.420Z,26.36
2018-08-20T12:06:04.712Z,26.33
2018-08-20T12:07:14.062Z,26.37
2018-08-20T12:08:24.016Z,26.39
2018-08-20T12:09:33.540Z,26.36
2018-08-20T12:10:42.980Z,26.33
2018-08-20T12:11:52.341Z,26.3
2018-08-20T12:13:01.177Z,26.3
2018-08-20T12:14:10.588Z,26.33
2018-08-20T12:15:20.275Z,26.25
2018-08-20T12:16:29.599Z,26.29
2018-08-20T12:17:38.602Z,26.32
2018-08-20T12:18:48.248Z,26.33
2018-08-20T12:19:57.541Z,26.33
2018-08-20T12:21:07.135Z,26.35
2018-08-20T12:22:16.788Z,26.32
2018-08-20T12:23:26.955Z,26.35
2018-08-20T12:24:36.043Z,26.33
2018-08-20T12:25:45.643Z,26.35
2018-08-20T12:26:55.163Z,26.3
2018-08-20T12:28:04.699Z,26.3
2018-08-20T12:29:14.084Z,26.32
2018-08-20T12:30:24.132Z,26.33
2018-08-20T12:31:32.976Z,26.3
2018-08-20T12:32:41.763Z,26.23
2018-08-20T12:33:51.051Z,26.28
2018-08-20T12:35:00.222Z,26.3
2018-08-20T12:36:11.905Z,26.33
2018-08-20T12:37:23.326Z,26.29
2018-08-20T12:38:32.819Z,26.35
2018-08-20T12:39:42.351Z,26.26
2018-08-20T12:40:52.148Z,26.3
2018-08-20T12:42:01.520Z,26.29
2018-08-20T12:43:11.014Z,26.3
2018-08-20T12:44:21.002Z,26.23
2018-08-20T12:45:30.278Z,26.32
2018-08-20T12:46:39.829Z,26.32
2018-08-20T12:47:49.381Z,26.28
2018-08-20T12:48:58.454Z,26.3
2018-08-20T12:50:07.839Z,26.3
2018-08-20T12:51:17.139Z,26.26
2018-08-20T12:52:26.483Z,26.3
2018-08-20T12:53:36.064Z,26.3
2018-08-20T12:54:45.648Z,26.26
2018-08-20T12:55:54.928Z,26.29
2018-08-20T12:57:03.684Z,26.26
2018-08-20T12:58:13.007Z,26.3
2018-08-20T12:59:22.364Z,26.26
2018-08-20T13:00:32.082Z,26.3
2018-08-20T13:01:41.637Z,26.26
2018-08-20T13:02:51.513Z,26.26
2018-08-20T13:04:01.014Z,26.26
2018-08-20T13:05:10.298Z,26.28
2018-08-20T13:06:20.183Z,26.3
2018-08-20T13:07:30.022Z,26.28
2018-08-20T13:08:39.614Z,26.26
2018-08-20T13:09:48.718Z,26.29
2018-08-20T13:10:57.999Z,26.29
2018-08-20T13:12:07.019Z,26.26
2018-08-20T13:13:16.812Z,26.3
2018-08-20T13:14:26.143Z,26.3
2018-08-20T13:15:35.449Z,26.29
2018-08-20T13:16:44.819Z,26.29
2018-08-20T13:17:54.109Z,26.33
2018-08-20T13:19:03.684Z,26.3
2018-08-20T13:20:12.700Z,26.25
2018-08-20T13:21:22.273Z,26.25
2018-08-20T13:22:31.739Z,26.29
2018-08-20T13:23:41.839Z,26.3
2018-08-20T13:24:51.705Z,26.35
2018-08-20T13:26:00.998Z,26.23
2018-08-20T13:27:10.149Z,26.29
2018-08-20T13:28:19.717Z,26.29
2018-08-20T13:29:29.104Z,26.3
2018-08-20T13:30:39.114Z,26.3
2018-08-20T13:31:48.886Z,26.26
2018-08-20T13:32:58.718Z,26.29
2018-08-20T13:34:07.852Z,26.3
2018-08-20T13:35:17.395Z,26.29
2018-08-20T13:36:27.250Z,26.3
2018-08-20T13:37:36.765Z,26.33
2018-08-20T13:38:46.311Z,26.26
2018-08-20T13:39:55.632Z,26.35
2018-08-20T13:41:04.945Z,26.28
2018-08-20T13:42:14.495Z,26.28
2018-08-20T13:43:24.086Z,26.29
2018-08-20T13:44:33.148Z,26.3
2018-08-20T13:45:42.956Z,26.25
2018-08-20T13:46:52.487Z,26.29
2018-08-20T13:48:01.536Z,26.28
2018-08-20T13:49:10.833Z,26.29
2018-08-20T13:50:20.175Z,26.33
2018-08-20T13:51:29.492Z,26.35
2018-08-20T13:52:38.616Z,26.32
2018-08-20T13:53:48.540Z,26.28
2018-08-20T13:54:58.184Z,26.3
2018-08-20T13:56:07.240Z,26.33
2018-08-20T13:57:16.359Z,26.35
2018-08-20T13:58:25.988Z,26.39
2018-08-20T13:59:35.784Z,26.33
2018-08-20T14:00:45.110Z,26.36
2018-08-20T14:01:54.743Z,26.36
2018-08-20T14:03:04.076Z,26.36
2018-08-20T14:04:13.933Z,26.4
2018-08-20T14:05:23.238Z,26.43
2018-08-20T14:06:33.161Z,26.35
2018-08-20T14:07:42.434Z,26.4
2018-08-20T14:08:51.763Z,26.33
2018-08-20T14:10:01.558Z,26.45
2018-08-20T14:11:10.876Z,26.4
2018-08-20T14:12:20.204Z,26.36
2018-08-20T14:13:29.540Z,26.37
2018-08-20T14:14:39.748Z,26.36
2018-08-20T14:15:50.308Z,26.43
2018-08-20T14:16:59.746Z,26.36
2018-08-20T14:18:09.307Z,26.4
2018-08-20T14:19:18.357Z,26.39
2018-08-20T14:20:27.839Z,26.35
2018-08-20T14:21:37.367Z,26.35
2018-08-20T14:22:46.697Z,26.44
2018-08-20T14:23:55.971Z,26.37
2018-08-20T14:25:05.058Z,26.39
2018-08-20T14:26:15.195Z,26.43
2018-08-20T14:27:24.463Z,26.35
2018-08-20T14:28:34.072Z,26.44
2018-08-20T14:29:42.842Z,26.44
2018-08-20T14:30:52.631Z,26.37
2018-08-20T14:32:02.108Z,26.44
2018-08-20T14:33:11.719Z,26.47
2018-08-20T14:34:20.978Z,26.44
2018-08-20T14:35:30.689Z,26.43
2018-08-20T14:36:40.706Z,26.44
2018-08-20T14:37:49.715Z,26.48
2018-08-20T14:38:59.296Z,26.47
2018-08-20T14:40:08.373Z,26.43
2018-08-20T14:41:17.950Z,26.47
2018-08-20T14:42:27.223Z,26.47
2018-08-20T14:43:37.266Z,26.43
2018-08-20T14:44:46.321Z,26.43
2018-08-20T14:45:56.436Z,26.45
2018-08-20T14:47:05.814Z,26.47
2018-08-20T14:48:15.406Z,26.43
2018-08-20T14:49:25.061Z,26.48
2018-08-20T14:50:34.424Z,26.45
2018-08-20T14:51:44.224Z,26.5
2018-08-20T14:52:54.377Z,26.4
2018-08-20T14:54:04.273Z,26.43
2018-08-20T14:55:14.060Z,26.5
2018-08-20T14:56:23.638Z,26.45
2018-08-20T14:57:33.476Z,26.51